sensor_id;sensor_type;location;lat;lon;timestamp;temperature;humidity
15959;DHT22;8078;47.822;9.402;2022-07-23T00:02:25;17.20;99.90
15959;DHT22;8078;47.822;9.402;2022-07-23T00:04:50;17.20;99.90
15959;DHT22;8078;47.822;9.402;2022-07-23T00:07:16;17.20;99.90
15959;DHT22;8078;47.822;9.402;2022-07-23T00:09:42;17.30;99.90
15959;DHT22;8078;47.822;9.402;2022-07-23T00:12:07;17.30;99.90
15959;DHT22;8078;47.822;9.402;2022-07-23T00:14:33;17.30;99.90
15959;DHT22;8078;47.822;9.402;2022-07-23T00:16:58;17.30;99.90
15959;DHT22;8078;47.822;9.402;2022-07-23T00:19:24;17.40;99.90
15959;DHT22;8078;47.822;9.402;2022-07-23T00:21:50;17.60;99.90
15959;DHT22;8078;47.822;9.402;2022-07-23T00:24:15;17.90;99.90
15959;DHT22;8078;47.822;9.402;2022-07-23T00:26:41;18.10;99.90
15959;DHT22;8078;47.822;9.402;2022-07-23T00:29:06;18.20;99.90
15959;DHT22;8078;47.822;9.402;2022-07-23T00:31:32;18.30;99.90
15959;DHT22;8078;47.822;9.402;2022-07-23T00:33:57;18.30;99.90
15959;DHT22;8078;47.822;9.402;2022-07-23T00:36:27;18.30;99.90
15959;DHT22;8078;47.822;9.402;2022-07-23T00:38:53;18.30;99.90
15959;DHT22;8078;47.822;9.402;2022-07-23T00:41:19;18.60;99.90
15959;DHT22;8078;47.822;9.402;2022-07-23T00:43:44;18.60;99.90
15959;DHT22;8078;47.822;9.402;2022-07-23T00:46:10;18.60;99.90
15959;DHT22;8078;47.822;9.402;2022-07-23T00:48:36;18.60;99.90
15959;DHT22;8078;47.822;9.402;2022-07-23T00:51:02;18.60;99.90
15959;DHT22;8078;47.822;9.402;2022-07-23T00:53:28;18.60;99.90
15959;DHT22;8078;47.822;9.402;2022-07-23T00:55:54;18.60;99.90
15959;DHT22;8078;47.822;9.402;2022-07-23T00:58:19;18.60;99.90
15959;DHT22;8078;47.822;9.402;2022-07-23T01:00:45;18.60;99.90
15959;DHT22;8078;47.822;9.402;2022-07-23T01:03:11;18.60;99.90
15959;DHT22;8078;47.822;9.402;2022-07-23T01:05:37;18.40;99.90
15959;DHT22;8078;47.822;9.402;2022-07-23T01:08:03;18.10;99.90
15959;DHT22;8078;47.822;9.402;2022-07-23T01:10:32;17.90;99.90
15959;DHT22;8078;47.822;9.402;2022-07-23T01:15:24;17.70;99.90
15959;DHT22;8078;47.822;9.402;2022-07-23T01:17:50;17.70;99.90
15959;DHT22;8078;47.822;9.402;2022-07-23T01:20:16;17.50;99.90
15959;DHT22;8078;47.822;9.402;2022-07-23T01:22:42;17.40;99.90
15959;DHT22;8078;47.822;9.402;2022-07-23T01:25:08;17.30;99.90
15959;DHT22;8078;47.822;9.402;2022-07-23T01:27:34;17.30;99.90
15959;DHT22;8078;47.822;9.402;2022-07-23T01:30:00;17.20;99.90
15959;DHT22;8078;47.822;9.402;2022-07-23T01:32:26;17.00;99.90
15959;DHT22;8078;47.822;9.402;2022-07-23T01:34:52;16.90;99.90
15959;DHT22;8078;47.822;9.402;2022-07-23T01:39:43;16.70;99.90
15959;DHT22;8078;47.822;9.402;2022-07-23T01:42:09;16.60;99.90
15959;DHT22;8078;47.822;9.402;2022-07-23T01:44:35;16.50;99.90
15959;DHT22;8078;47.822;9.402;2022-07-23T01:47:00;16.40;99.90
15959;DHT22;8078;47.822;9.402;2022-07-23T01:49:26;16.40;99.90
15959;DHT22;8078;47.822;9.402;2022-07-23T01:51:52;16.50;99.90
15959;DHT22;8078;47.822;9.402;2022-07-23T01:54:32;16.50;99.90
15959;DHT22;8078;47.822;9.402;2022-07-23T01:56:58;16.50;99.90
15959;DHT22;8078;47.822;9.402;2022-07-23T01:59:24;16.70;99.90
15959;DHT22;8078;47.822;9.402;2022-07-23T02:01:50;16.70;99.90
15959;DHT22;8078;47.822;9.402;2022-07-23T02:04:17;16.70;99.90
15959;DHT22;8078;47.822;9.402;2022-07-23T02:06:43;16.70;99.90
15959;DHT22;8078;47.822;9.402;2022-07-23T02:09:08;16.60;99.90
15959;DHT22;8078;47.822;9.402;2022-07-23T02:11:34;16.50;99.90
15959;DHT22;8078;47.822;9.402;2022-07-23T02:13:59;16.40;99.90
15959;DHT22;8078;47.822;9.402;2022-07-23T02:16:25;16.30;99.90
15959;DHT22;8078;47.822;9.402;2022-07-23T02:18:50;16.30;99.90
15959;DHT22;8078;47.822;9.402;2022-07-23T02:21:16;16.20;99.90
15959;DHT22;8078;47.822;9.402;2022-07-23T02:23:41;16.20;99.90
15959;DHT22;8078;47.822;9.402;2022-07-23T02:26:07;16.20;99.90
15959;DHT22;8078;47.822;9.402;2022-07-23T02:28:33;16.20;99.90
15959;DHT22;8078;47.822;9.402;2022-07-23T02:30:58;16.30;99.90
15959;DHT22;8078;47.822;9.402;2022-07-23T02:33:24;16.30;99.90
15959;DHT22;8078;47.822;9.402;2022-07-23T02:35:49;16.50;99.90
15959;DHT22;8078;47.822;9.402;2022-07-23T02:38:15;16.50;99.90
15959;DHT22;8078;47.822;9.402;2022-07-23T02:40:41;16.60;99.90
15959;DHT22;8078;47.822;9.402;2022-07-23T02:43:07;16.60;99.90
15959;DHT22;8078;47.822;9.402;2022-07-23T02:45:32;16.70;99.90
15959;DHT22;8078;47.822;9.402;2022-07-23T02:47:58;16.80;99.90
15959;DHT22;8078;47.822;9.402;2022-07-23T02:50:23;16.90;99.90
15959;DHT22;8078;47.822;9.402;2022-07-23T02:52:49;16.90;99.90
15959;DHT22;8078;47.822;9.402;2022-07-23T02:55:15;17.00;99.90
15959;DHT22;8078;47.822;9.402;2022-07-23T02:57:40;17.10;99.90
15959;DHT22;8078;47.822;9.402;2022-07-23T03:00:07;17.10;99.90
15959;DHT22;8078;47.822;9.402;2022-07-23T03:02:32;17.20;99.90
15959;DHT22;8078;47.822;9.402;2022-07-23T03:04:58;17.20;99.90
15959;DHT22;8078;47.822;9.402;2022-07-23T03:07:24;17.10;99.90
15959;DHT22;8078;47.822;9.402;2022-07-23T03:09:49;17.10;99.90
15959;DHT22;8078;47.822;9.402;2022-07-23T03:12:15;17.00;99.90
15959;DHT22;8078;47.822;9.402;2022-07-23T03:14:41;17.00;99.90
15959;DHT22;8078;47.822;9.402;2022-07-23T03:17:07;17.00;99.90
15959;DHT22;8078;47.822;9.402;2022-07-23T03:19:33;16.90;99.90
15959;DHT22;8078;47.822;9.402;2022-07-23T03:21:59;16.90;99.90
15959;DHT22;8078;47.822;9.402;2022-07-23T03:24:24;16.90;99.90
15959;DHT22;8078;47.822;9.402;2022-07-23T03:27:10;17.00;99.90
15959;DHT22;8078;47.822;9.402;2022-07-23T03:29:36;17.00;99.90
15959;DHT22;8078;47.822;9.402;2022-07-23T03:32:03;17.10;99.90
15959;DHT22;8078;47.822;9.402;2022-07-23T03:34:28;17.20;99.90
15959;DHT22;8078;47.822;9.402;2022-07-23T03:36:54;17.20;99.90
15959;DHT22;8078;47.822;9.402;2022-07-23T03:39:20;17.30;99.90
15959;DHT22;8078;47.822;9.402;2022-07-23T03:41:45;17.30;99.90
15959;DHT22;8078;47.822;9.402;2022-07-23T03:44:11;17.20;99.90
15959;DHT22;8078;47.822;9.402;2022-07-23T03:46:36;17.00;99.90
15959;DHT22;8078;47.822;9.402;2022-07-23T03:49:02;16.90;99.90
15959;DHT22;8078;47.822;9.402;2022-07-23T03:51:27;16.90;99.90
15959;DHT22;8078;47.822;9.402;2022-07-23T03:53:53;16.80;99.90
15959;DHT22;8078;47.822;9.402;2022-07-23T03:56:20;16.80;99.90
15959;DHT22;8078;47.822;9.402;2022-07-23T03:58:45;16.70;99.90
15959;DHT22;8078;47.822;9.402;2022-07-23T04:01:11;16.80;99.90
15959;DHT22;8078;47.822;9.402;2022-07-23T04:03:37;16.80;99.90
15959;DHT22;8078;47.822;9.402;2022-07-23T04:06:03;16.90;99.90
15959;DHT22;8078;47.822;9.402;2022-07-23T04:08:28;17.00;99.90
15959;DHT22;8078;47.822;9.402;2022-07-23T04:10:55;17.00;99.90
15959;DHT22;8078;47.822;9.402;2022-07-23T04:13:21;17.00;99.90
15959;DHT22;8078;47.822;9.402;2022-07-23T04:15:47;17.10;99.90
15959;DHT22;8078;47.822;9.402;2022-07-23T04:18:12;17.10;99.90
15959;DHT22;8078;47.822;9.402;2022-07-23T04:20:38;17.20;99.90
15959;DHT22;8078;47.822;9.402;2022-07-23T04:23:03;17.30;99.90
15959;DHT22;8078;47.822;9.402;2022-07-23T04:25:29;17.50;99.90
15959;DHT22;8078;47.822;9.402;2022-07-23T04:27:54;17.60;99.90
15959;DHT22;8078;47.822;9.402;2022-07-23T04:30:20;17.50;99.90
15959;DHT22;8078;47.822;9.402;2022-07-23T04:32:46;17.30;99.90
15959;DHT22;8078;47.822;9.402;2022-07-23T04:35:11;17.20;99.90
15959;DHT22;8078;47.822;9.402;2022-07-23T04:37:37;17.10;99.90
15959;DHT22;8078;47.822;9.402;2022-07-23T04:40:03;17.00;99.90
15959;DHT22;8078;47.822;9.402;2022-07-23T04:42:29;17.10;99.90
15959;DHT22;8078;47.822;9.402;2022-07-23T04:44:54;17.20;99.90
15959;DHT22;8078;47.822;9.402;2022-07-23T04:47:20;17.20;99.90
15959;DHT22;8078;47.822;9.402;2022-07-23T04:49:45;17.30;99.90
15959;DHT22;8078;47.822;9.402;2022-07-23T04:52:11;17.30;99.90
15959;DHT22;8078;47.822;9.402;2022-07-23T04:54:37;17.40;99.90
15959;DHT22;8078;47.822;9.402;2022-07-23T04:57:02;17.40;99.90
15959;DHT22;8078;47.822;9.402;2022-07-23T04:59:28;17.50;99.90
15959;DHT22;8078;47.822;9.402;2022-07-23T05:01:53;17.50;99.90
15959;DHT22;8078;47.822;9.402;2022-07-23T05:04:19;17.30;99.90
15959;DHT22;8078;47.822;9.402;2022-07-23T05:06:44;17.20;99.90
15959;DHT22;8078;47.822;9.402;2022-07-23T05:09:10;17.10;99.90
15959;DHT22;8078;47.822;9.402;2022-07-23T05:11:36;17.10;99.90
15959;DHT22;8078;47.822;9.402;2022-07-23T05:14:01;17.10;99.90
15959;DHT22;8078;47.822;9.402;2022-07-23T05:16:27;16.90;99.90
15959;DHT22;8078;47.822;9.402;2022-07-23T05:18:52;16.80;99.90
15959;DHT22;8078;47.822;9.402;2022-07-23T05:21:19;16.90;99.90
15959;DHT22;8078;47.822;9.402;2022-07-23T05:23:44;16.80;99.90
15959;DHT22;8078;47.822;9.402;2022-07-23T05:26:10;16.80;99.90
15959;DHT22;8078;47.822;9.402;2022-07-23T05:28:36;16.70;99.90
15959;DHT22;8078;47.822;9.402;2022-07-23T05:31:02;16.60;99.90
15959;DHT22;8078;47.822;9.402;2022-07-23T05:33:29;16.50;99.90
15959;DHT22;8078;47.822;9.402;2022-07-23T05:36:03;16.60;99.90
15959;DHT22;8078;47.822;9.402;2022-07-23T05:38:29;16.60;99.90
15959;DHT22;8078;47.822;9.402;2022-07-23T05:40:55;16.60;99.90
15959;DHT22;8078;47.822;9.402;2022-07-23T05:43:20;16.60;99.90
15959;DHT22;8078;47.822;9.402;2022-07-23T05:45:46;16.60;99.90
15959;DHT22;8078;47.822;9.402;2022-07-23T05:48:11;16.60;99.90
15959;DHT22;8078;47.822;9.402;2022-07-23T05:50:37;16.70;99.90
15959;DHT22;8078;47.822;9.402;2022-07-23T05:53:02;17.10;99.90
15959;DHT22;8078;47.822;9.402;2022-07-23T05:55:28;17.50;99.90
15959;DHT22;8078;47.822;9.402;2022-07-23T05:57:57;17.50;99.90
15959;DHT22;8078;47.822;9.402;2022-07-23T06:00:24;17.40;99.90
15959;DHT22;8078;47.822;9.402;2022-07-23T06:02:49;17.50;99.90
15959;DHT22;8078;47.822;9.402;2022-07-23T06:05:15;17.40;99.90
15959;DHT22;8078;47.822;9.402;2022-07-23T06:07:41;17.40;99.90
15959;DHT22;8078;47.822;9.402;2022-07-23T06:10:07;17.40;99.90
15959;DHT22;8078;47.822;9.402;2022-07-23T06:12:35;17.40;99.90
15959;DHT22;8078;47.822;9.402;2022-07-23T06:15:01;17.40;99.90
15959;DHT22;8078;47.822;9.402;2022-07-23T06:17:27;17.50;99.90
15959;DHT22;8078;47.822;9.402;2022-07-23T06:19:54;17.50;99.90
15959;DHT22;8078;47.822;9.402;2022-07-23T06:22:20;17.40;99.90
15959;DHT22;8078;47.822;9.402;2022-07-23T06:24:45;17.50;99.90
15959;DHT22;8078;47.822;9.402;2022-07-23T06:27:11;17.50;99.90
15959;DHT22;8078;47.822;9.402;2022-07-23T06:29:36;17.40;99.90
15959;DHT22;8078;47.822;9.402;2022-07-23T06:32:02;17.50;99.90
15959;DHT22;8078;47.822;9.402;2022-07-23T06:34:28;17.50;99.90
15959;DHT22;8078;47.822;9.402;2022-07-23T06:36:53;17.50;99.90
15959;DHT22;8078;47.822;9.402;2022-07-23T06:39:19;17.50;99.90
15959;DHT22;8078;47.822;9.402;2022-07-23T06:41:44;17.50;99.90
15959;DHT22;8078;47.822;9.402;2022-07-23T06:44:10;17.50;99.90
15959;DHT22;8078;47.822;9.402;2022-07-23T06:46:35;17.60;99.90
15959;DHT22;8078;47.822;9.402;2022-07-23T06:49:01;17.70;99.90
15959;DHT22;8078;47.822;9.402;2022-07-23T06:51:29;17.70;99.90
15959;DHT22;8078;47.822;9.402;2022-07-23T06:53:55;17.70;99.90
15959;DHT22;8078;47.822;9.402;2022-07-23T06:56:20;17.60;99.90
15959;DHT22;8078;47.822;9.402;2022-07-23T06:58:46;17.60;99.90
15959;DHT22;8078;47.822;9.402;2022-07-23T07:01:12;17.40;99.90
15959;DHT22;8078;47.822;9.402;2022-07-23T07:03:37;17.40;99.90
15959;DHT22;8078;47.822;9.402;2022-07-23T07:06:03;17.50;99.90
15959;DHT22;8078;47.822;9.402;2022-07-23T07:08:29;17.40;99.90
15959;DHT22;8078;47.822;9.402;2022-07-23T07:10:54;17.10;99.90
15959;DHT22;8078;47.822;9.402;2022-07-23T07:13:20;17.10;99.90
15959;DHT22;8078;47.822;9.402;2022-07-23T07:15:45;17.20;99.90
15959;DHT22;8078;47.822;9.402;2022-07-23T07:18:11;17.30;99.90
15959;DHT22;8078;47.822;9.402;2022-07-23T07:20:36;17.50;99.90
15959;DHT22;8078;47.822;9.402;2022-07-23T07:23:02;17.40;99.90
15959;DHT22;8078;47.822;9.402;2022-07-23T07:25:27;17.50;99.90
15959;DHT22;8078;47.822;9.402;2022-07-23T07:27:53;17.50;99.90
15959;DHT22;8078;47.822;9.402;2022-07-23T07:30:19;17.50;99.90
15959;DHT22;8078;47.822;9.402;2022-07-23T07:32:44;17.50;99.90
15959;DHT22;8078;47.822;9.402;2022-07-23T07:35:10;17.60;99.90
15959;DHT22;8078;47.822;9.402;2022-07-23T07:37:35;17.50;99.90
15959;DHT22;8078;47.822;9.402;2022-07-23T07:40:01;17.40;99.90
15959;DHT22;8078;47.822;9.402;2022-07-23T07:42:27;17.30;99.90
15959;DHT22;8078;47.822;9.402;2022-07-23T07:44:52;17.30;99.90
15959;DHT22;8078;47.822;9.402;2022-07-23T07:47:18;17.20;99.90
15959;DHT22;8078;47.822;9.402;2022-07-23T07:49:43;17.20;99.90
15959;DHT22;8078;47.822;9.402;2022-07-23T07:52:10;17.20;99.90
15959;DHT22;8078;47.822;9.402;2022-07-23T07:54:36;17.30;99.90
15959;DHT22;8078;47.822;9.402;2022-07-23T07:57:02;17.40;99.90
15959;DHT22;8078;47.822;9.402;2022-07-23T07:59:27;17.40;99.90
15959;DHT22;8078;47.822;9.402;2022-07-23T08:01:53;17.30;99.90
15959;DHT22;8078;47.822;9.402;2022-07-23T08:04:18;17.20;99.90
15959;DHT22;8078;47.822;9.402;2022-07-23T08:06:44;17.10;99.90
15959;DHT22;8078;47.822;9.402;2022-07-23T08:09:09;17.00;99.90
15959;DHT22;8078;47.822;9.402;2022-07-23T08:11:35;16.90;99.90
15959;DHT22;8078;47.822;9.402;2022-07-23T08:14:01;16.90;99.90
15959;DHT22;8078;47.822;9.402;2022-07-23T08:16:26;16.90;99.90
15959;DHT22;8078;47.822;9.402;2022-07-23T08:18:52;16.80;99.90
15959;DHT22;8078;47.822;9.402;2022-07-23T08:21:17;16.80;99.90
15959;DHT22;8078;47.822;9.402;2022-07-23T08:23:43;16.80;99.90
15959;DHT22;8078;47.822;9.402;2022-07-23T08:26:09;16.80;99.90
15959;DHT22;8078;47.822;9.402;2022-07-23T08:28:34;16.70;99.90
15959;DHT22;8078;47.822;9.402;2022-07-23T08:31:00;16.80;99.90
15959;DHT22;8078;47.822;9.402;2022-07-23T08:33:26;16.80;99.90
15959;DHT22;8078;47.822;9.402;2022-07-23T08:35:51;16.70;99.90
15959;DHT22;8078;47.822;9.402;2022-07-23T08:38:22;16.70;99.90
15959;DHT22;8078;47.822;9.402;2022-07-23T08:40:50;16.70;99.90
15959;DHT22;8078;47.822;9.402;2022-07-23T08:43:21;16.70;99.90
15959;DHT22;8078;47.822;9.402;2022-07-23T08:45:49;16.70;99.90
15959;DHT22;8078;47.822;9.402;2022-07-23T08:48:20;16.70;99.90
15959;DHT22;8078;47.822;9.402;2022-07-23T08:50:48;16.80;99.90
15959;DHT22;8078;47.822;9.402;2022-07-23T08:53:15;17.00;99.90
15959;DHT22;8078;47.822;9.402;2022-07-23T08:55:44;17.10;99.90
15959;DHT22;8078;47.822;9.402;2022-07-23T08:58:11;17.20;99.90
15959;DHT22;8078;47.822;9.402;2022-07-23T09:00:36;17.30;99.90
15959;DHT22;8078;47.822;9.402;2022-07-23T09:03:02;17.60;99.90
15959;DHT22;8078;47.822;9.402;2022-07-23T09:05:28;17.80;99.90
15959;DHT22;8078;47.822;9.402;2022-07-23T09:10:44;17.90;99.90
15959;DHT22;8078;47.822;9.402;2022-07-23T09:15:54;17.80;99.90
15959;DHT22;8078;47.822;9.402;2022-07-23T09:18:28;17.90;99.90
15959;DHT22;8078;47.822;9.402;2022-07-23T09:21:27;17.90;99.90
15959;DHT22;8078;47.822;9.402;2022-07-23T09:24:04;18.00;99.90
15959;DHT22;8078;47.822;9.402;2022-07-23T09:26:41;18.00;99.90
15959;DHT22;8078;47.822;9.402;2022-07-23T09:29:18;18.20;99.90
15959;DHT22;8078;47.822;9.402;2022-07-23T09:31:51;18.40;99.90
15959;DHT22;8078;47.822;9.402;2022-07-23T09:36:43;18.30;99.90
15959;DHT22;8078;47.822;9.402;2022-07-23T09:39:10;18.40;99.90
15959;DHT22;8078;47.822;9.402;2022-07-23T09:41:38;18.20;99.90
15959;DHT22;8078;47.822;9.402;2022-07-23T09:44:13;18.10;99.90
15959;DHT22;8078;47.822;9.402;2022-07-23T09:46:39;18.00;99.90
15959;DHT22;8078;47.822;9.402;2022-07-23T09:51:48;17.90;99.90
15959;DHT22;8078;47.822;9.402;2022-07-23T09:54:40;17.70;99.90
15959;DHT22;8078;47.822;9.402;2022-07-23T09:57:11;17.70;99.90
15959;DHT22;8078;47.822;9.402;2022-07-23T09:59:41;17.70;99.90
15959;DHT22;8078;47.822;9.402;2022-07-23T10:02:10;17.80;99.90
15959;DHT22;8078;47.822;9.402;2022-07-23T10:04:36;17.90;99.90
15959;DHT22;8078;47.822;9.402;2022-07-23T10:07:04;17.90;99.90
15959;DHT22;8078;47.822;9.402;2022-07-23T10:09:36;17.90;99.90
15959;DHT22;8078;47.822;9.402;2022-07-23T10:12:13;17.70;99.90
15959;DHT22;8078;47.822;9.402;2022-07-23T10:14:57;17.80;99.90
15959;DHT22;8078;47.822;9.402;2022-07-23T10:17:23;17.80;99.90
15959;DHT22;8078;47.822;9.402;2022-07-23T10:19:49;17.80;99.90
15959;DHT22;8078;47.822;9.402;2022-07-23T10:22:20;17.90;99.90
15959;DHT22;8078;47.822;9.402;2022-07-23T10:30:51;17.70;99.90
15959;DHT22;8078;47.822;9.402;2022-07-23T10:33:54;17.70;99.90
15959;DHT22;8078;47.822;9.402;2022-07-23T10:36:23;17.70;99.90
15959;DHT22;8078;47.822;9.402;2022-07-23T10:41:35;18.10;99.90
15959;DHT22;8078;47.822;9.402;2022-07-23T10:44:15;18.40;99.90
15959;DHT22;8078;47.822;9.402;2022-07-23T10:46:55;18.50;99.90
15959;DHT22;8078;47.822;9.402;2022-07-23T10:49:41;18.60;99.90
15959;DHT22;8078;47.822;9.402;2022-07-23T10:54:42;18.60;99.90
15959;DHT22;8078;47.822;9.402;2022-07-23T10:57:09;18.90;99.90
15959;DHT22;8078;47.822;9.402;2022-07-23T11:02:28;19.00;99.90
15959;DHT22;8078;47.822;9.402;2022-07-23T11:04:56;19.10;99.90
15959;DHT22;8078;47.822;9.402;2022-07-23T11:07:24;19.30;99.90
15959;DHT22;8078;47.822;9.402;2022-07-23T11:09:49;19.40;99.90
15959;DHT22;8078;47.822;9.402;2022-07-23T11:15:09;18.90;99.90
15959;DHT22;8078;47.822;9.402;2022-07-23T11:17:38;18.60;99.90
15959;DHT22;8078;47.822;9.402;2022-07-23T11:25:10;18.20;99.90
15959;DHT22;8078;47.822;9.402;2022-07-23T11:27:41;18.00;99.90
15959;DHT22;8078;47.822;9.402;2022-07-23T11:30:08;18.20;99.90
15959;DHT22;8078;47.822;9.402;2022-07-23T11:32:37;18.30;99.90
15959;DHT22;8078;47.822;9.402;2022-07-23T11:35:19;18.50;99.90
15959;DHT22;8078;47.822;9.402;2022-07-23T11:37:46;18.50;99.90
15959;DHT22;8078;47.822;9.402;2022-07-23T11:40:15;18.50;99.90
15959;DHT22;8078;47.822;9.402;2022-07-23T11:42:53;18.60;99.90
15959;DHT22;8078;47.822;9.402;2022-07-23T11:45:19;18.70;99.90
15959;DHT22;8078;47.822;9.402;2022-07-23T11:47:45;18.60;99.90
15959;DHT22;8078;47.822;9.402;2022-07-23T11:50:10;18.70;99.90
15959;DHT22;8078;47.822;9.402;2022-07-23T11:52:36;18.70;99.90
15959;DHT22;8078;47.822;9.402;2022-07-23T11:55:08;18.80;99.90
15959;DHT22;8078;47.822;9.402;2022-07-23T11:57:36;18.80;99.90
15959;DHT22;8078;47.822;9.402;2022-07-23T12:00:13;18.70;99.90
15959;DHT22;8078;47.822;9.402;2022-07-23T12:02:40;18.70;99.90
15959;DHT22;8078;47.822;9.402;2022-07-23T12:05:07;18.80;99.90
15959;DHT22;8078;47.822;9.402;2022-07-23T12:07:40;18.90;99.90
15959;DHT22;8078;47.822;9.402;2022-07-23T12:10:14;19.10;99.90
15959;DHT22;8078;47.822;9.402;2022-07-23T12:12:46;18.90;99.90
15959;DHT22;8078;47.822;9.402;2022-07-23T12:15:13;18.90;99.90
15959;DHT22;8078;47.822;9.402;2022-07-23T12:17:41;19.10;99.90
15959;DHT22;8078;47.822;9.402;2022-07-23T12:20:09;19.00;99.90
15959;DHT22;8078;47.822;9.402;2022-07-23T12:22:38;18.80;99.90
15959;DHT22;8078;47.822;9.402;2022-07-23T12:25:07;18.70;99.90
15959;DHT22;8078;47.822;9.402;2022-07-23T12:27:33;18.50;99.90
15959;DHT22;8078;47.822;9.402;2022-07-23T12:30:14;18.40;99.90
15959;DHT22;8078;47.822;9.402;2022-07-23T12:32:43;18.60;99.90
15959;DHT22;8078;47.822;9.402;2022-07-23T12:35:09;18.90;99.90
15959;DHT22;8078;47.822;9.402;2022-07-23T12:37:37;19.00;99.90
15959;DHT22;8078;47.822;9.402;2022-07-23T12:42:48;19.90;99.90
15959;DHT22;8078;47.822;9.402;2022-07-23T12:45:14;19.80;99.90
15959;DHT22;8078;47.822;9.402;2022-07-23T12:48:00;19.80;99.90
15959;DHT22;8078;47.822;9.402;2022-07-23T12:50:34;20.00;99.90
15959;DHT22;8078;47.822;9.402;2022-07-23T12:53:26;20.20;99.90
15959;DHT22;8078;47.822;9.402;2022-07-23T12:55:56;20.30;99.90
15959;DHT22;8078;47.822;9.402;2022-07-23T12:58:23;20.70;99.90
15959;DHT22;8078;47.822;9.402;2022-07-23T13:01:03;20.40;99.90
15959;DHT22;8078;47.822;9.402;2022-07-23T13:03:38;20.40;99.90
15959;DHT22;8078;47.822;9.402;2022-07-23T13:06:07;20.40;99.90
15959;DHT22;8078;47.822;9.402;2022-07-23T13:08:34;20.50;99.90
15959;DHT22;8078;47.822;9.402;2022-07-23T13:11:01;20.70;99.90
15959;DHT22;8078;47.822;9.402;2022-07-23T13:13:29;20.90;99.90
15959;DHT22;8078;47.822;9.402;2022-07-23T13:15:56;20.90;99.90
15959;DHT22;8078;47.822;9.402;2022-07-23T13:18:22;21.30;99.90
15959;DHT22;8078;47.822;9.402;2022-07-23T13:20:48;21.90;99.90
15959;DHT22;8078;47.822;9.402;2022-07-23T13:23:15;21.90;99.90
15959;DHT22;8078;47.822;9.402;2022-07-23T13:25:41;21.50;99.90
15959;DHT22;8078;47.822;9.402;2022-07-23T13:28:06;21.60;99.90
15959;DHT22;8078;47.822;9.402;2022-07-23T13:30:32;21.90;99.90
15959;DHT22;8078;47.822;9.402;2022-07-23T13:32:58;22.50;99.90
15959;DHT22;8078;47.822;9.402;2022-07-23T13:35:24;22.10;99.90
15959;DHT22;8078;47.822;9.402;2022-07-23T13:37:50;22.20;99.90
15959;DHT22;8078;47.822;9.402;2022-07-23T13:40:15;22.10;99.90
15959;DHT22;8078;47.822;9.402;2022-07-23T13:42:41;22.40;99.90
15959;DHT22;8078;47.822;9.402;2022-07-23T13:45:07;22.60;99.90
15959;DHT22;8078;47.822;9.402;2022-07-23T13:47:33;22.20;99.90
15959;DHT22;8078;47.822;9.402;2022-07-23T13:49:58;22.40;99.90
15959;DHT22;8078;47.822;9.402;2022-07-23T13:52:24;22.60;99.90
15959;DHT22;8078;47.822;9.402;2022-07-23T13:54:50;22.80;99.90
15959;DHT22;8078;47.822;9.402;2022-07-23T13:57:16;23.00;99.90
15959;DHT22;8078;47.822;9.402;2022-07-23T13:59:42;23.20;99.90
15959;DHT22;8078;47.822;9.402;2022-07-23T14:02:07;23.20;99.90
15959;DHT22;8078;47.822;9.402;2022-07-23T14:04:33;23.10;99.90
15959;DHT22;8078;47.822;9.402;2022-07-23T14:06:59;23.30;99.90
15959;DHT22;8078;47.822;9.402;2022-07-23T14:09:25;23.10;99.90
15959;DHT22;8078;47.822;9.402;2022-07-23T14:11:50;23.50;99.90
15959;DHT22;8078;47.822;9.402;2022-07-23T14:14:17;23.40;99.90
15959;DHT22;8078;47.822;9.402;2022-07-23T14:16:43;23.50;99.90
15959;DHT22;8078;47.822;9.402;2022-07-23T14:19:09;23.50;99.90
15959;DHT22;8078;47.822;9.402;2022-07-23T14:21:35;23.80;99.90
15959;DHT22;8078;47.822;9.402;2022-07-23T14:24:00;23.90;99.90
15959;DHT22;8078;47.822;9.402;2022-07-23T14:26:26;24.40;99.90
15959;DHT22;8078;47.822;9.402;2022-07-23T14:28:52;24.20;99.90
15959;DHT22;8078;47.822;9.402;2022-07-23T14:31:18;23.80;99.90
15959;DHT22;8078;47.822;9.402;2022-07-23T14:33:43;23.30;99.90
15959;DHT22;8078;47.822;9.402;2022-07-23T14:36:09;23.60;99.90
15959;DHT22;8078;47.822;9.402;2022-07-23T14:38:34;23.50;99.90
15959;DHT22;8078;47.822;9.402;2022-07-23T14:41:00;23.30;99.90
15959;DHT22;8078;47.822;9.402;2022-07-23T14:43:25;23.10;99.90
15959;DHT22;8078;47.822;9.402;2022-07-23T14:45:51;22.80;99.90
15959;DHT22;8078;47.822;9.402;2022-07-23T14:48:17;23.00;99.90
15959;DHT22;8078;47.822;9.402;2022-07-23T14:50:42;23.60;99.90
15959;DHT22;8078;47.822;9.402;2022-07-23T14:53:08;23.60;99.90
15959;DHT22;8078;47.822;9.402;2022-07-23T14:55:33;24.10;99.90
15959;DHT22;8078;47.822;9.402;2022-07-23T14:57:59;23.60;99.90
15959;DHT22;8078;47.822;9.402;2022-07-23T15:00:25;23.80;99.90
15959;DHT22;8078;47.822;9.402;2022-07-23T15:02:52;23.10;99.90
15959;DHT22;8078;47.822;9.402;2022-07-23T15:05:17;22.60;99.90
15959;DHT22;8078;47.822;9.402;2022-07-23T15:07:43;22.70;99.90
15959;DHT22;8078;47.822;9.402;2022-07-23T15:10:09;23.20;99.90
15959;DHT22;8078;47.822;9.402;2022-07-23T15:12:34;23.00;99.90
15959;DHT22;8078;47.822;9.402;2022-07-23T15:15:00;23.30;99.90
15959;DHT22;8078;47.822;9.402;2022-07-23T15:17:26;22.70;99.90
15959;DHT22;8078;47.822;9.402;2022-07-23T15:19:51;22.80;99.90
15959;DHT22;8078;47.822;9.402;2022-07-23T15:22:17;22.40;99.90
15959;DHT22;8078;47.822;9.402;2022-07-23T15:24:43;22.40;99.90
15959;DHT22;8078;47.822;9.402;2022-07-23T15:27:08;23.00;99.90
15959;DHT22;8078;47.822;9.402;2022-07-23T15:29:34;23.40;99.90
15959;DHT22;8078;47.822;9.402;2022-07-23T15:32:00;23.60;99.90
15959;DHT22;8078;47.822;9.402;2022-07-23T15:34:26;22.90;99.90
15959;DHT22;8078;47.822;9.402;2022-07-23T15:36:52;23.40;99.90
15959;DHT22;8078;47.822;9.402;2022-07-23T15:39:18;23.70;99.90
15959;DHT22;8078;47.822;9.402;2022-07-23T15:41:43;23.50;99.90
15959;DHT22;8078;47.822;9.402;2022-07-23T15:44:09;23.00;99.90
15959;DHT22;8078;47.822;9.402;2022-07-23T15:46:34;23.00;99.90
15959;DHT22;8078;47.822;9.402;2022-07-23T15:49:00;23.10;99.90
15959;DHT22;8078;47.822;9.402;2022-07-23T15:51:26;22.60;99.90
15959;DHT22;8078;47.822;9.402;2022-07-23T15:53:51;22.50;99.90
15959;DHT22;8078;47.822;9.402;2022-07-23T15:56:17;22.60;99.90
15959;DHT22;8078;47.822;9.402;2022-07-23T15:58:43;23.10;99.90
15959;DHT22;8078;47.822;9.402;2022-07-23T16:01:08;23.80;99.90
15959;DHT22;8078;47.822;9.402;2022-07-23T16:03:35;23.90;99.90
15959;DHT22;8078;47.822;9.402;2022-07-23T16:06:02;24.10;99.90
15959;DHT22;8078;47.822;9.402;2022-07-23T16:08:28;24.40;99.90
15959;DHT22;8078;47.822;9.402;2022-07-23T16:10:53;25.00;99.90
15959;DHT22;8078;47.822;9.402;2022-07-23T16:13:22;24.40;99.90
15959;DHT22;8078;47.822;9.402;2022-07-23T16:15:48;24.20;99.90
15959;DHT22;8078;47.822;9.402;2022-07-23T16:18:14;23.80;99.90
15959;DHT22;8078;47.822;9.402;2022-07-23T16:20:39;24.10;99.90
15959;DHT22;8078;47.822;9.402;2022-07-23T16:23:05;23.80;99.90
15959;DHT22;8078;47.822;9.402;2022-07-23T16:25:33;23.70;99.90